Queen Of Nanaimo — VCNX — position and weather

sailwx.info

Track history (hours):
 
Tides and Currents Weather Stations Pressure Air Temp Water Temp Dewpoint Dewpoint Depression Visibility Wind Speed Wind Dir Waves Ship Positions

Queen Of Nanaimo

Last reported at 2014-Jul-22 21:06 UTC. Time now 2014-Jul-22 21:38 UTC.
Position N 48°51' W 123°27'.

Length 130 m; draft 4 m.

Type: Ship. MMSI: 316001254.

Date/timePositionNaut miles runAvg speedWind from/ knotsBaromVisibWave heightAir tempDewpointWater temp
2014-Jul-22 21:06N 48°51' W 123°27'1 1.1
2014-Jul-22 20:24N 48°51' W 123°26'4 4.9
2014-Jul-22 19:34N 48°49' W 123°20'4 3.8
2014-Jul-22 18:34N 48°53' W 123°19'1010.0
2014-Jul-22 17:33N 48°60' W 123°09'1 0.6
2014-Jul-22 16:33N 49°00' W 123°08'1110.7
2014-Jul-22 15:33N 48°53' W 123°19'2 1.9
2014-Jul-22 14:32N 48°51' W 123°20'3 3.3
2014-Jul-22 13:33N 48°50' W 123°25'2 1.4
2014-Jul-22 12:09N 48°51' W 123°27'0 0.0
2014-Jul-22 06:17N 48°51' W 123°27'1 1.5
2014-Jul-22 05:33N 48°51' W 123°25'4 3.6
2014-Jul-22 04:32N 48°51' W 123°20'2 2.0
2014-Jul-22 03:33N 48°53' W 123°19'1110.6
2014-Jul-22 02:33N 49°00' W 123°08'5 4.6
2014-Jul-22 01:33N 48°57' W 123°12'7 6.8
2014-Jul-22 00:33N 48°52' W 123°19'5 1.3
2014-Jul-21 20:28N 48°51' W 123°27'1 8.0
2014-Jul-21 20:17N 48°50' W 123°25'3 4.7
2014-Jul-21 19:34N 48°49' W 123°20'4 3.6
2014-Jul-21 18:33N 48°53' W 123°19'1110.7
2014-Jul-21 17:33N 49°00' W 123°08'0 0.0
2014-Jul-21 16:33N 49°00' W 123°08'1110.7
2014-Jul-21 15:33N 48°53' W 123°19'2 2.0
2014-Jul-21 14:33N 48°51' W 123°20'3 3.4
2014-Jul-21 13:34N 48°50' W 123°25'2 0.4
2014-Jul-21 08:17N 48°51' W 123°27'0 0.0
2014-Jul-21 07:06N 48°51' W 123°27'510.1
2014-Jul-21 06:34N 48°52' W 123°19'1111.2
2014-Jul-21 05:33N 49°00' W 123°08'1010.1
2014-Jul-21 04:33N 48°53' W 123°18'2 2.4
2014-Jul-21 03:33N 48°51' W 123°20'7 7.2
2014-Jul-21 02:33N 48°57' W 123°14'5 5.4
2014-Jul-21 01:33N 49°00' W 123°08'1110.6
2014-Jul-21 00:33N 48°53' W 123°19'6 5.0
2014-Jul-20 23:27N 48°51' W 123°27'1 0.6
2014-Jul-20 22:26N 48°51' W 123°26'1214.0
2014-Jul-20 21:33N 48°58' W 123°11'3 3.1
2014-Jul-20 20:33N 49°00' W 123°08'1110.4
2014-Jul-20 19:32N 48°53' W 123°19'2 2.0
2014-Jul-20 18:33N 48°51' W 123°20'3 2.7
2014-Jul-20 17:33N 48°53' W 123°18'10 9.9
2014-Jul-20 16:33N 49°00' W 123°08'7 6.7
2014-Jul-20 15:34N 48°55' W 123°14'7 7.4
2014-Jul-20 14:33N 48°51' W 123°23'2 1.5
2014-Jul-20 13:04N 48°51' W 123°27'0 0.0
2014-Jul-20 12:33N 48°51' W 123°27'0 0.0
2014-Jul-20 11:32N 48°51' W 123°27'0 0.0
2014-Jul-20 10:20N 48°51' W 123°27'0 0.0
2014-Jul-20 09:33N 48°51' W 123°27'0 0.0
2014-Jul-20 06:15N 48°51' W 123°27'3 3.9
2014-Jul-20 05:31N 48°51' W 123°22'1313.4
2014-Jul-20 04:33N 49°00' W 123°08'0 0.3
2014-Jul-20 03:33N 49°00' W 123°08'0 0.0
2014-Jul-20 02:33N 49°00' W 123°08'0 0.0
2014-Jul-20 01:33N 49°00' W 123°08'1110.8
2014-Jul-20 00:33N 48°52' W 123°18'3 0.8
2014-Jul-19 20:33N 48°51' W 123°23'1313.6
2014-Jul-19 19:33N 49°00' W 123°08'6 5.5
2014-Jul-19 18:33N 48°56' W 123°13'7 6.8
2014-Jul-19 17:33N 48°51' W 123°20'2 1.9
2014-Jul-19 16:33N 48°53' W 123°19'1110.7
2014-Jul-19 15:33N 49°00' W 123°08'2 1.7
2014-Jul-19 14:33N 48°59' W 123°09'1312.9
2014-Jul-19 13:33N 48°51' W 123°25'1 0.7
2014-Jul-19 11:30N 48°51' W 123°27'0 0.0
2014-Jul-19 10:33N 48°51' W 123°27'0 0.0
2014-Jul-19 09:27N 48°51' W 123°27'0 0.0
2014-Jul-19 08:23N 48°51' W 123°27'5 1.6
2014-Jul-19 05:33N 48°48' W 123°22'3 2.9
2014-Jul-19 04:34N 48°51' W 123°20'1212.0
2014-Jul-19 03:34N 48°60' W 123°08'2 1.9
2014-Jul-19 02:33N 48°58' W 123°10'10 7.0
2014-Jul-19 01:06N 48°51' W 123°21'2 3.6
2014-Jul-19 00:33N 48°53' W 123°19'1110.8
2014-Jul-18 23:33N 49°00' W 123°08'4 4.5
2014-Jul-18 22:34N 48°57' W 123°12'1111.1
2014-Jul-18 21:33N 48°51' W 123°27'1 0.5
2014-Jul-18 20:29N 48°51' W 123°26'4 4.8
2014-Jul-18 19:33N 48°49' W 123°20'4 4.0
2014-Jul-18 18:34N 48°53' W 123°19'1110.7
2014-Jul-18 17:33N 49°00' W 123°08'0 0.0
2014-Jul-18 16:33N 49°00' W 123°08'1110.7
2014-Jul-18 15:33N 48°53' W 123°19'2 1.9
2014-Jul-18 14:32N 48°51' W 123°20'3 3.4
2014-Jul-18 13:34N 48°49' W 123°24'3 1.3
2014-Jul-18 11:16N 48°51' W 123°27'0 0.0
2014-Jul-18 07:11N 48°51' W 123°27'2 1.2
2014-Jul-18 05:33N 48°50' W 123°25'4 3.4
2014-Jul-18 04:31N 48°51' W 123°20'4 4.1
2014-Jul-18 03:34N 48°54' W 123°17'9 8.6
2014-Jul-18 02:34N 49°00' W 123°08'1 1.1
2014-Jul-18 01:33N 48°59' W 123°08'10 9.6
2014-Jul-18 00:33N 48°53' W 123°19'3 3.3
2014-Jul-17 23:32N 48°49' W 123°20'5 4.1
2014-Jul-17 22:23N 48°51' W 123°27'1 0.7
2014-Jul-17 20:31N 48°50' W 123°25'4 3.6
2014-Jul-17 19:32N 48°50' W 123°20'3 3.2
2014-Jul-17 18:34N 48°53' W 123°19'1110.5
2014-Jul-17 17:33N 49°00' W 123°08'0 0.2
2014-Jul-17 16:33N 49°00' W 123°08'1110.7
2014-Jul-17 15:33N 48°53' W 123°19'3 2.6
2014-Jul-17 14:33N 48°50' W 123°20'3 0.4
2014-Jul-17 05:30N 48°50' W 123°25'3 3.7
2014-Jul-17 04:33N 48°51' W 123°20'2 2.0
2014-Jul-17 03:34N 48°53' W 123°19'1110.7
2014-Jul-17 02:33N 49°00' W 123°08'2 2.2
2014-Jul-17 01:34N 48°59' W 123°09'8 8.5
2014-Jul-17 00:33N 48°53' W 123°19'4 4.2
2014-Jul-16 23:33N 48°48' W 123°20'4 1.3
2014-Jul-16 20:24N 48°50' W 123°25'4 4.1
2014-Jul-16 19:33N 48°50' W 123°20'3 3.1
2014-Jul-16 18:33N 48°53' W 123°19'1110.8
2014-Jul-16 17:33N 49°00' W 123°08'0 0.0
2014-Jul-16 16:33N 49°00' W 123°08'1110.7
2014-Jul-16 15:33N 48°53' W 123°19'3 2.6
2014-Jul-16 14:33N 48°50' W 123°20'3 3.3
2014-Jul-16 13:33N 48°50' W 123°25'1 0.2
2014-Jul-16 06:29N 48°51' W 123°27'1 1.0
2014-Jul-16 05:29N 48°51' W 123°25'4 3.8
2014-Jul-16 04:33N 48°51' W 123°20'2 2.0
2014-Jul-16 03:34N 48°53' W 123°19'1110.6
2014-Jul-16 02:33N 49°00' W 123°08'2 2.1
2014-Jul-16 01:34N 48°59' W 123°09'9 8.5
2014-Jul-16 00:34N 48°53' W 123°19'3 2.8
2014-Jul-15 23:33N 48°50' W 123°20'4 3.9
2014-Jul-15 22:26N 48°51' W 123°27'1 0.5
2014-Jul-15 20:20N 48°51' W 123°25'4 5.0
2014-Jul-15 19:33N 48°49' W 123°20'4 3.8
2014-Jul-15 18:33N 48°53' W 123°19'1110.7
2014-Jul-15 17:33N 49°00' W 123°08'0 0.0
2014-Jul-15 16:33N 49°00' W 123°08'1110.7
2014-Jul-15 15:33N 48°53' W 123°19'2 2.0
2014-Jul-15 14:33N 48°51' W 123°20'3 3.3
2014-Jul-15 13:33N 48°50' W 123°25'2 1.5
2014-Jul-15 12:31N 48°51' W 123°27'0 0.0
2014-Jul-15 11:22N 48°51' W 123°27'0 0.0
2014-Jul-15 08:23N 48°51' W 123°27'0 0.0
2014-Jul-15 07:24N 48°51' W 123°27'0 0.0
2014-Jul-15 06:33N 48°51' W 123°27'1 1.5
2014-Jul-15 05:33N 48°50' W 123°25'3 3.4
2014-Jul-15 04:33N 48°51' W 123°20'3 2.6
2014-Jul-15 03:34N 48°53' W 123°18'1010.0
2014-Jul-15 02:33N 49°00' W 123°08'6 6.4
2014-Jul-15 01:33N 48°56' W 123°14'6 6.1
2014-Jul-15 00:33N 48°51' W 123°20'3 2.7
2014-Jul-14 23:23N 48°48' W 123°19'5 2.2
2014-Jul-14 21:15N 48°50' W 123°25'5 6.6
2014-Jul-14 20:32N 48°48' W 123°19'5 5.0
2014-Jul-14 19:34N 48°53' W 123°19'7 6.5
2014-Jul-14 18:33N 48°57' W 123°12'4 4.2
2014-Jul-14 17:34N 49°00' W 123°08'0 0.4
2014-Jul-14 16:34N 48°60' W 123°08'1010.2
2014-Jul-14 15:33N 48°53' W 123°19'3 2.7
2014-Jul-14 14:34N 48°50' W 123°20'3 2.8
2014-Jul-14 13:33N 48°50' W 123°24'2 0.5
2014-Jul-14 09:07N 48°51' W 123°27'0 0.0
2014-Jul-14 07:12N 48°51' W 123°27'5 7.5
2014-Jul-14 06:33N 48°52' W 123°19'1211.8
2014-Jul-14 05:33N 49°00' W 123°08'1010.0
2014-Jul-14 04:33N 48°53' W 123°18'2 0.9
2014-Jul-14 02:33N 48°54' W 123°16'8 8.2
2014-Jul-14 01:33N 49°00' W 123°08'10 9.6
2014-Jul-14 00:34N 48°53' W 123°17'6 5.8
2014-Jul-13 23:33N 48°50' W 123°25'0 0.1
2014-Jul-13 22:31N 48°50' W 123°25'1212.3
2014-Jul-13 21:33N 48°58' W 123°12'3 3.2
2014-Jul-13 20:34N 49°00' W 123°08'1010.3
2014-Jul-13 19:33N 48°53' W 123°19'2 1.7
2014-Jul-13 18:26N 48°51' W 123°20'3 3.2
2014-Jul-13 17:33N 48°53' W 123°17'10 9.7
2014-Jul-13 16:34N 49°00' W 123°08'8 7.6
2014-Jul-13 15:34N 48°54' W 123°15'7 6.5
2014-Jul-13 14:33N 48°51' W 123°24'2 0.7
2014-Jul-13 11:33N 48°51' W 123°27'0 0.0
2014-Jul-13 10:11N 48°51' W 123°27'0 0.0
2014-Jul-13 06:26N 48°51' W 123°27'3 3.3
2014-Jul-13 05:31N 48°51' W 123°22'1313.5
2014-Jul-13 04:34N 49°00' W 123°08'0 0.1
2014-Jul-13 03:33N 49°00' W 123°08'0 0.0
2014-Jul-13 02:33N 49°00' W 123°08'0 0.0
2014-Jul-13 01:33N 49°00' W 123°08'1110.7
2014-Jul-13 00:34N 48°52' W 123°18'5 4.7
2014-Jul-12 23:33N 48°50' W 123°25'1 1.3
2014-Jul-12 22:31N 48°51' W 123°27'0 0.0
2014-Jul-12 21:31N 48°51' W 123°27'  
Track history (hours):
 
Tides and Currents Weather Stations Pressure Air Temp Water Temp Dewpoint Dewpoint Depression Visibility Wind Speed Wind Dir Waves Ship Positions

Queen Of Nanaimo

Last reported at 2014-Jul-22 21:06 UTC. Time now 2014-Jul-22 21:38 UTC.
Position N 48°51' W 123°27'.

Length 130 m; draft 4 m.

Type: Ship. MMSI: 316001254.

Date/timePositionNaut miles runAvg speedWind from/ knotsBaromVisibWave heightAir tempDewpointWater temp
2014-Jul-22 21:06N 48°51' W 123°27'1 1.1
2014-Jul-22 20:24N 48°51' W 123°26'4 4.9
2014-Jul-22 19:34N 48°49' W 123°20'4 3.8
2014-Jul-22 18:34N 48°53' W 123°19'1010.0
2014-Jul-22 17:33N 48°60' W 123°09'1 0.6
2014-Jul-22 16:33N 49°00' W 123°08'1110.7
2014-Jul-22 15:33N 48°53' W 123°19'2 1.9
2014-Jul-22 14:32N 48°51' W 123°20'3 3.3
2014-Jul-22 13:33N 48°50' W 123°25'2 1.4
2014-Jul-22 12:09N 48°51' W 123°27'0 0.0
2014-Jul-22 06:17N 48°51' W 123°27'1 1.5
2014-Jul-22 05:33N 48°51' W 123°25'4 3.6
2014-Jul-22 04:32N 48°51' W 123°20'2 2.0
2014-Jul-22 03:33N 48°53' W 123°19'1110.6
2014-Jul-22 02:33N 49°00' W 123°08'5 4.6
2014-Jul-22 01:33N 48°57' W 123°12'7 6.8
2014-Jul-22 00:33N 48°52' W 123°19'5 1.3
2014-Jul-21 20:28N 48°51' W 123°27'1 8.0
2014-Jul-21 20:17N 48°50' W 123°25'3 4.7
2014-Jul-21 19:34N 48°49' W 123°20'4 3.6
2014-Jul-21 18:33N 48°53' W 123°19'1110.7
2014-Jul-21 17:33N 49°00' W 123°08'0 0.0
2014-Jul-21 16:33N 49°00' W 123°08'1110.7
2014-Jul-21 15:33N 48°53' W 123°19'2 2.0
2014-Jul-21 14:33N 48°51' W 123°20'3 3.4
2014-Jul-21 13:34N 48°50' W 123°25'2 0.4
2014-Jul-21 08:17N 48°51' W 123°27'0 0.0
2014-Jul-21 07:06N 48°51' W 123°27'510.1
2014-Jul-21 06:34N 48°52' W 123°19'1111.2
2014-Jul-21 05:33N 49°00' W 123°08'1010.1
2014-Jul-21 04:33N 48°53' W 123°18'2 2.4
2014-Jul-21 03:33N 48°51' W 123°20'7 7.2
2014-Jul-21 02:33N 48°57' W 123°14'5 5.4
2014-Jul-21 01:33N 49°00' W 123°08'1110.6
2014-Jul-21 00:33N 48°53' W 123°19'6 5.0
2014-Jul-20 23:27N 48°51' W 123°27'1 0.6
2014-Jul-20 22:26N 48°51' W 123°26'1214.0
2014-Jul-20 21:33N 48°58' W 123°11'3 3.1
2014-Jul-20 20:33N 49°00' W 123°08'1110.4
2014-Jul-20 19:32N 48°53' W 123°19'2 2.0
2014-Jul-20 18:33N 48°51' W 123°20'3 2.7
2014-Jul-20 17:33N 48°53' W 123°18'10 9.9
2014-Jul-20 16:33N 49°00' W 123°08'7 6.7
2014-Jul-20 15:34N 48°55' W 123°14'7 7.4
2014-Jul-20 14:33N 48°51' W 123°23'2 1.5
2014-Jul-20 13:04N 48°51' W 123°27'0 0.0
2014-Jul-20 12:33N 48°51' W 123°27'0 0.0
2014-Jul-20 11:32N 48°51' W 123°27'0 0.0
2014-Jul-20 10:20N 48°51' W 123°27'0 0.0
2014-Jul-20 09:33N 48°51' W 123°27'0 0.0
2014-Jul-20 06:15N 48°51' W 123°27'3 3.9
2014-Jul-20 05:31N 48°51' W 123°22'1313.4
2014-Jul-20 04:33N 49°00' W 123°08'0 0.3
2014-Jul-20 03:33N 49°00' W 123°08'0 0.0
2014-Jul-20 02:33N 49°00' W 123°08'0 0.0
2014-Jul-20 01:33N 49°00' W 123°08'1110.8
2014-Jul-20 00:33N 48°52' W 123°18'3 0.8
2014-Jul-19 20:33N 48°51' W 123°23'1313.6
2014-Jul-19 19:33N 49°00' W 123°08'6 5.5
2014-Jul-19 18:33N 48°56' W 123°13'7 6.8
2014-Jul-19 17:33N 48°51' W 123°20'2 1.9
2014-Jul-19 16:33N 48°53' W 123°19'1110.7
2014-Jul-19 15:33N 49°00' W 123°08'2 1.7
2014-Jul-19 14:33N 48°59' W 123°09'1312.9
2014-Jul-19 13:33N 48°51' W 123°25'1 0.7
2014-Jul-19 11:30N 48°51' W 123°27'0 0.0
2014-Jul-19 10:33N 48°51' W 123°27'0 0.0
2014-Jul-19 09:27N 48°51' W 123°27'0 0.0
2014-Jul-19 08:23N 48°51' W 123°27'5 1.6
2014-Jul-19 05:33N 48°48' W 123°22'3 2.9
2014-Jul-19 04:34N 48°51' W 123°20'1212.0
2014-Jul-19 03:34N 48°60' W 123°08'2 1.9
2014-Jul-19 02:33N 48°58' W 123°10'10 7.0
2014-Jul-19 01:06N 48°51' W 123°21'2 3.6
2014-Jul-19 00:33N 48°53' W 123°19'1110.8
2014-Jul-18 23:33N 49°00' W 123°08'4 4.5
2014-Jul-18 22:34N 48°57' W 123°12'1111.1
2014-Jul-18 21:33N 48°51' W 123°27'1 0.5
2014-Jul-18 20:29N 48°51' W 123°26'4 4.8
2014-Jul-18 19:33N 48°49' W 123°20'4 4.0
2014-Jul-18 18:34N 48°53' W 123°19'1110.7
2014-Jul-18 17:33N 49°00' W 123°08'0 0.0
2014-Jul-18 16:33N 49°00' W 123°08'1110.7
2014-Jul-18 15:33N 48°53' W 123°19'2 1.9
2014-Jul-18 14:32N 48°51' W 123°20'3 3.4
2014-Jul-18 13:34N 48°49' W 123°24'3 1.3
2014-Jul-18 11:16N 48°51' W 123°27'0 0.0
2014-Jul-18 07:11N 48°51' W 123°27'2 1.2
2014-Jul-18 05:33N 48°50' W 123°25'4 3.4
2014-Jul-18 04:31N 48°51' W 123°20'4 4.1
2014-Jul-18 03:34N 48°54' W 123°17'9 8.6
2014-Jul-18 02:34N 49°00' W 123°08'1 1.1
2014-Jul-18 01:33N 48°59' W 123°08'10 9.6
2014-Jul-18 00:33N 48°53' W 123°19'3 3.3
2014-Jul-17 23:32N 48°49' W 123°20'5 4.1
2014-Jul-17 22:23N 48°51' W 123°27'1 0.7
2014-Jul-17 20:31N 48°50' W 123°25'4 3.6
2014-Jul-17 19:32N 48°50' W 123°20'3 3.2
2014-Jul-17 18:34N 48°53' W 123°19'1110.5
2014-Jul-17 17:33N 49°00' W 123°08'0 0.2
2014-Jul-17 16:33N 49°00' W 123°08'1110.7
2014-Jul-17 15:33N 48°53' W 123°19'3 2.6
2014-Jul-17 14:33N 48°50' W 123°20'3 0.4
2014-Jul-17 05:30N 48°50' W 123°25'3 3.7
2014-Jul-17 04:33N 48°51' W 123°20'2 2.0
2014-Jul-17 03:34N 48°53' W 123°19'1110.7
2014-Jul-17 02:33N 49°00' W 123°08'2 2.2
2014-Jul-17 01:34N 48°59' W 123°09'8 8.5
2014-Jul-17 00:33N 48°53' W 123°19'4 4.2
2014-Jul-16 23:33N 48°48' W 123°20'4 1.3
2014-Jul-16 20:24N 48°50' W 123°25'4 4.1
2014-Jul-16 19:33N 48°50' W 123°20'3 3.1
2014-Jul-16 18:33N 48°53' W 123°19'1110.8
2014-Jul-16 17:33N 49°00' W 123°08'0 0.0
2014-Jul-16 16:33N 49°00' W 123°08'1110.7
2014-Jul-16 15:33N 48°53' W 123°19'3 2.6
2014-Jul-16 14:33N 48°50' W 123°20'3 3.3
2014-Jul-16 13:33N 48°50' W 123°25'1 0.2
2014-Jul-16 06:29N 48°51' W 123°27'1 1.0
2014-Jul-16 05:29N 48°51' W 123°25'4 3.8
2014-Jul-16 04:33N 48°51' W 123°20'2 2.0
2014-Jul-16 03:34N 48°53' W 123°19'1110.6
2014-Jul-16 02:33N 49°00' W 123°08'2 2.1
2014-Jul-16 01:34N 48°59' W 123°09'9 8.5
2014-Jul-16 00:34N 48°53' W 123°19'3 2.8
2014-Jul-15 23:33N 48°50' W 123°20'4 3.9
2014-Jul-15 22:26N 48°51' W 123°27'1 0.5
2014-Jul-15 20:20N 48°51' W 123°25'4 5.0
2014-Jul-15 19:33N 48°49' W 123°20'4 3.8
2014-Jul-15 18:33N 48°53' W 123°19'1110.7
2014-Jul-15 17:33N 49°00' W 123°08'0 0.0
2014-Jul-15 16:33N 49°00' W 123°08'1110.7
2014-Jul-15 15:33N 48°53' W 123°19'2 2.0
2014-Jul-15 14:33N 48°51' W 123°20'3 3.3
2014-Jul-15 13:33N 48°50' W 123°25'2 1.5
2014-Jul-15 12:31N 48°51' W 123°27'0 0.0
2014-Jul-15 11:22N 48°51' W 123°27'0 0.0
2014-Jul-15 08:23N 48°51' W 123°27'0 0.0
2014-Jul-15 07:24N 48°51' W 123°27'0 0.0
2014-Jul-15 06:33N 48°51' W 123°27'1 1.5
2014-Jul-15 05:33N 48°50' W 123°25'3 3.4
2014-Jul-15 04:33N 48°51' W 123°20'3 2.6
2014-Jul-15 03:34N 48°53' W 123°18'1010.0
2014-Jul-15 02:33N 49°00' W 123°08'6 6.4
2014-Jul-15 01:33N 48°56' W 123°14'6 6.1
2014-Jul-15 00:33N 48°51' W 123°20'3 2.7
2014-Jul-14 23:23N 48°48' W 123°19'5 2.2
2014-Jul-14 21:15N 48°50' W 123°25'5 6.6
2014-Jul-14 20:32N 48°48' W 123°19'5 5.0
2014-Jul-14 19:34N 48°53' W 123°19'7 6.5
2014-Jul-14 18:33N 48°57' W 123°12'4 4.2
2014-Jul-14 17:34N 49°00' W 123°08'0 0.4
2014-Jul-14 16:34N 48°60' W 123°08'1010.2
2014-Jul-14 15:33N 48°53' W 123°19'3 2.7
2014-Jul-14 14:34N 48°50' W 123°20'3 2.8
2014-Jul-14 13:33N 48°50' W 123°24'2 0.5
2014-Jul-14 09:07N 48°51' W 123°27'0 0.0
2014-Jul-14 07:12N 48°51' W 123°27'5 7.5
2014-Jul-14 06:33N 48°52' W 123°19'1211.8
2014-Jul-14 05:33N 49°00' W 123°08'1010.0
2014-Jul-14 04:33N 48°53' W 123°18'2 0.9
2014-Jul-14 02:33N 48°54' W 123°16'8 8.2
2014-Jul-14 01:33N 49°00' W 123°08'10 9.6
2014-Jul-14 00:34N 48°53' W 123°17'6 5.8
2014-Jul-13 23:33N 48°50' W 123°25'0 0.1
2014-Jul-13 22:31N 48°50' W 123°25'1212.3
2014-Jul-13 21:33N 48°58' W 123°12'3 3.2
2014-Jul-13 20:34N 49°00' W 123°08'1010.3
2014-Jul-13 19:33N 48°53' W 123°19'2 1.7
2014-Jul-13 18:26N 48°51' W 123°20'3 3.2
2014-Jul-13 17:33N 48°53' W 123°17'10 9.7
2014-Jul-13 16:34N 49°00' W 123°08'8 7.6
2014-Jul-13 15:34N 48°54' W 123°15'7 6.5
2014-Jul-13 14:33N 48°51' W 123°24'2 0.7
2014-Jul-13 11:33N 48°51' W 123°27'0 0.0
2014-Jul-13 10:11N 48°51' W 123°27'0 0.0
2014-Jul-13 06:26N 48°51' W 123°27'3 3.3
2014-Jul-13 05:31N 48°51' W 123°22'1313.5
2014-Jul-13 04:34N 49°00' W 123°08'0 0.1
2014-Jul-13 03:33N 49°00' W 123°08'0 0.0
2014-Jul-13 02:33N 49°00' W 123°08'0 0.0
2014-Jul-13 01:33N 49°00' W 123°08'1110.7
2014-Jul-13 00:34N 48°52' W 123°18'5 4.7
2014-Jul-12 23:33N 48°50' W 123°25'1 1.3
2014-Jul-12 22:31N 48°51' W 123°27'0 0.0
2014-Jul-12 21:31N 48°51' W 123°27'  

Dump ship's entire track history